sensor_id;sensor_type;location;lat;lon;timestamp;temperature;humidity
981;DHT22;479;53.514;9.994;2023-12-20T00:00:57;6.50;99.90
981;DHT22;479;53.514;9.994;2023-12-20T00:03:25;6.50;99.90
981;DHT22;479;53.514;9.994;2023-12-20T00:05:58;6.40;99.90
981;DHT22;479;53.514;9.994;2023-12-20T00:08:25;6.40;99.90
981;DHT22;479;53.514;9.994;2023-12-20T00:10:52;6.30;99.90
981;DHT22;479;53.514;9.994;2023-12-20T00:13:18;6.30;99.90
981;DHT22;479;53.514;9.994;2023-12-20T00:15:45;6.30;99.90
981;DHT22;479;53.514;9.994;2023-12-20T00:18:12;6.30;99.90
981;DHT22;479;53.514;9.994;2023-12-20T00:20:39;6.20;99.90
981;DHT22;479;53.514;9.994;2023-12-20T00:23:07;6.20;99.90
981;DHT22;479;53.514;9.994;2023-12-20T00:25:34;6.20;99.90
981;DHT22;479;53.514;9.994;2023-12-20T00:28:01;6.20;99.90
981;DHT22;479;53.514;9.994;2023-12-20T00:30:28;6.20;99.90
981;DHT22;479;53.514;9.994;2023-12-20T00:32:55;6.20;99.90
981;DHT22;479;53.514;9.994;2023-12-20T00:35:22;6.20;99.90
981;DHT22;479;53.514;9.994;2023-12-20T00:37:49;6.30;99.90
981;DHT22;479;53.514;9.994;2023-12-20T00:40:17;6.30;99.90
981;DHT22;479;53.514;9.994;2023-12-20T00:42:44;6.30;99.90
981;DHT22;479;53.514;9.994;2023-12-20T00:45:12;6.50;99.90
981;DHT22;479;53.514;9.994;2023-12-20T00:47:40;6.50;99.90
981;DHT22;479;53.514;9.994;2023-12-20T00:50:07;6.40;99.90
981;DHT22;479;53.514;9.994;2023-12-20T00:52:34;6.40;99.90
981;DHT22;479;53.514;9.994;2023-12-20T00:55:01;6.50;99.90
981;DHT22;479;53.514;9.994;2023-12-20T00:57:31;6.50;99.90
981;DHT22;479;53.514;9.994;2023-12-20T00:59:57;6.50;99.90
981;DHT22;479;53.514;9.994;2023-12-20T01:02:25;6.50;99.90
981;DHT22;479;53.514;9.994;2023-12-20T01:04:52;6.40;99.90
981;DHT22;479;53.514;9.994;2023-12-20T01:07:18;6.40;99.90
981;DHT22;479;53.514;9.994;2023-12-20T01:09:45;6.40;99.90
981;DHT22;479;53.514;9.994;2023-12-20T01:12:12;6.40;99.90
981;DHT22;479;53.514;9.994;2023-12-20T01:14:40;6.30;99.90
981;DHT22;479;53.514;9.994;2023-12-20T01:17:07;6.20;99.90
981;DHT22;479;53.514;9.994;2023-12-20T01:19:35;6.20;99.90
981;DHT22;479;53.514;9.994;2023-12-20T01:22:02;6.10;99.90
981;DHT22;479;53.514;9.994;2023-12-20T01:24:29;6.20;99.90
981;DHT22;479;53.514;9.994;2023-12-20T01:26:55;6.10;99.90
981;DHT22;479;53.514;9.994;2023-12-20T01:29:22;6.10;99.90
981;DHT22;479;53.514;9.994;2023-12-20T01:31:51;6.10;99.90
981;DHT22;479;53.514;9.994;2023-12-20T01:34:17;6.00;99.90
981;DHT22;479;53.514;9.994;2023-12-20T01:36:44;6.00;99.90
981;DHT22;479;53.514;9.994;2023-12-20T01:39:11;6.00;99.90
981;DHT22;479;53.514;9.994;2023-12-20T01:41:38;5.90;99.90
981;DHT22;479;53.514;9.994;2023-12-20T01:44:05;5.90;99.90
981;DHT22;479;53.514;9.994;2023-12-20T01:46:32;5.90;99.90
981;DHT22;479;53.514;9.994;2023-12-20T01:49:00;5.90;99.90
981;DHT22;479;53.514;9.994;2023-12-20T01:51:27;5.90;99.90
981;DHT22;479;53.514;9.994;2023-12-20T01:53:55;5.90;99.90
981;DHT22;479;53.514;9.994;2023-12-20T01:56:24;5.90;99.90
981;DHT22;479;53.514;9.994;2023-12-20T01:58:51;5.90;99.90
981;DHT22;479;53.514;9.994;2023-12-20T02:01:18;5.90;99.90
981;DHT22;479;53.514;9.994;2023-12-20T02:03:45;5.90;99.90
981;DHT22;479;53.514;9.994;2023-12-20T02:06:14;6.10;99.90
981;DHT22;479;53.514;9.994;2023-12-20T02:08:41;6.10;99.90
981;DHT22;479;53.514;9.994;2023-12-20T02:11:08;6.00;99.90
981;DHT22;479;53.514;9.994;2023-12-20T02:13:35;6.00;99.90
981;DHT22;479;53.514;9.994;2023-12-20T02:16:02;6.00;99.90
981;DHT22;479;53.514;9.994;2023-12-20T02:18:29;6.00;99.90
981;DHT22;479;53.514;9.994;2023-12-20T02:20:56;5.90;99.90
981;DHT22;479;53.514;9.994;2023-12-20T02:23:24;5.90;99.90
981;DHT22;479;53.514;9.994;2023-12-20T02:25:51;5.90;99.90
981;DHT22;479;53.514;9.994;2023-12-20T02:28:18;5.80;99.90
981;DHT22;479;53.514;9.994;2023-12-20T02:30:47;5.90;99.90
981;DHT22;479;53.514;9.994;2023-12-20T02:33:15;6.00;99.90
981;DHT22;479;53.514;9.994;2023-12-20T02:35:42;6.20;99.90
981;DHT22;479;53.514;9.994;2023-12-20T02:38:09;6.30;99.90
981;DHT22;479;53.514;9.994;2023-12-20T02:40:37;6.30;99.90
981;DHT22;479;53.514;9.994;2023-12-20T02:43:04;6.20;99.90
981;DHT22;479;53.514;9.994;2023-12-20T02:45:31;6.20;99.90
981;DHT22;479;53.514;9.994;2023-12-20T02:47:58;6.10;99.90
981;DHT22;479;53.514;9.994;2023-12-20T02:50:24;6.10;99.90
981;DHT22;479;53.514;9.994;2023-12-20T02:52:51;6.00;99.90
981;DHT22;479;53.514;9.994;2023-12-20T02:55:18;6.00;99.90
981;DHT22;479;53.514;9.994;2023-12-20T02:57:46;6.00;99.90
981;DHT22;479;53.514;9.994;2023-12-20T03:00:14;6.00;99.90
981;DHT22;479;53.514;9.994;2023-12-20T03:02:41;5.90;99.90
981;DHT22;479;53.514;9.994;2023-12-20T03:05:08;5.90;99.90
981;DHT22;479;53.514;9.994;2023-12-20T03:07:36;5.90;99.90
981;DHT22;479;53.514;9.994;2023-12-20T03:10:04;5.90;99.90
981;DHT22;479;53.514;9.994;2023-12-20T03:12:31;5.90;99.90
981;DHT22;479;53.514;9.994;2023-12-20T03:14:59;5.90;99.90
981;DHT22;479;53.514;9.994;2023-12-20T03:17:26;6.00;99.90
981;DHT22;479;53.514;9.994;2023-12-20T03:19:53;6.00;99.90
981;DHT22;479;53.514;9.994;2023-12-20T03:22:20;6.00;99.90
981;DHT22;479;53.514;9.994;2023-12-20T03:24:47;6.00;99.90
981;DHT22;479;53.514;9.994;2023-12-20T03:27:14;5.90;99.90
981;DHT22;479;53.514;9.994;2023-12-20T03:29:41;5.90;99.90
981;DHT22;479;53.514;9.994;2023-12-20T03:32:09;6.00;99.90
981;DHT22;479;53.514;9.994;2023-12-20T03:34:36;6.00;99.90
981;DHT22;479;53.514;9.994;2023-12-20T03:37:03;6.00;99.90
981;DHT22;479;53.514;9.994;2023-12-20T03:39:30;6.10;99.90
981;DHT22;479;53.514;9.994;2023-12-20T03:41:56;6.10;99.90
981;DHT22;479;53.514;9.994;2023-12-20T03:44:23;6.10;99.90
981;DHT22;479;53.514;9.994;2023-12-20T03:46:50;6.10;99.90
981;DHT22;479;53.514;9.994;2023-12-20T03:49:18;6.10;99.90
981;DHT22;479;53.514;9.994;2023-12-20T03:51:45;6.20;99.90
981;DHT22;479;53.514;9.994;2023-12-20T03:54:12;6.20;99.90
981;DHT22;479;53.514;9.994;2023-12-20T03:56:39;6.20;99.90
981;DHT22;479;53.514;9.994;2023-12-20T03:59:06;6.20;99.90
981;DHT22;479;53.514;9.994;2023-12-20T04:01:32;6.20;99.90
981;DHT22;479;53.514;9.994;2023-12-20T04:03:59;6.20;99.90
981;DHT22;479;53.514;9.994;2023-12-20T04:06:27;6.20;99.90
981;DHT22;479;53.514;9.994;2023-12-20T04:08:54;6.20;99.90
981;DHT22;479;53.514;9.994;2023-12-20T04:11:21;6.20;99.90
981;DHT22;479;53.514;9.994;2023-12-20T04:13:48;6.30;99.90
981;DHT22;479;53.514;9.994;2023-12-20T04:16:15;6.30;99.90
981;DHT22;479;53.514;9.994;2023-12-20T04:18:42;6.30;99.90
981;DHT22;479;53.514;9.994;2023-12-20T04:21:08;6.30;99.90
981;DHT22;479;53.514;9.994;2023-12-20T04:23:37;6.30;99.90
981;DHT22;479;53.514;9.994;2023-12-20T04:26:03;6.30;99.90
981;DHT22;479;53.514;9.994;2023-12-20T04:28:30;6.30;99.90
981;DHT22;479;53.514;9.994;2023-12-20T04:30:57;6.30;99.90
981;DHT22;479;53.514;9.994;2023-12-20T04:33:24;6.30;99.90
981;DHT22;479;53.514;9.994;2023-12-20T04:35:51;6.30;99.90
981;DHT22;479;53.514;9.994;2023-12-20T04:38:20;6.20;99.90
981;DHT22;479;53.514;9.994;2023-12-20T04:40:48;6.20;99.90
981;DHT22;479;53.514;9.994;2023-12-20T04:43:17;6.20;99.90
981;DHT22;479;53.514;9.994;2023-12-20T04:45:44;6.20;99.90
981;DHT22;479;53.514;9.994;2023-12-20T04:48:11;6.20;99.90
981;DHT22;479;53.514;9.994;2023-12-20T04:50:38;6.20;99.90
981;DHT22;479;53.514;9.994;2023-12-20T04:53:05;6.20;99.90
981;DHT22;479;53.514;9.994;2023-12-20T04:55:33;6.20;99.90
981;DHT22;479;53.514;9.994;2023-12-20T04:58:05;6.20;99.90
981;DHT22;479;53.514;9.994;2023-12-20T05:00:32;6.30;99.90
981;DHT22;479;53.514;9.994;2023-12-20T05:03:00;6.30;99.90
981;DHT22;479;53.514;9.994;2023-12-20T05:05:29;6.40;99.90
981;DHT22;479;53.514;9.994;2023-12-20T05:07:57;6.30;99.90
981;DHT22;479;53.514;9.994;2023-12-20T05:10:25;6.40;99.90
981;DHT22;479;53.514;9.994;2023-12-20T05:12:54;6.30;99.90
981;DHT22;479;53.514;9.994;2023-12-20T05:15:23;6.40;99.90
981;DHT22;479;53.514;9.994;2023-12-20T05:17:49;6.40;99.90
981;DHT22;479;53.514;9.994;2023-12-20T05:20:16;6.40;99.90
981;DHT22;479;53.514;9.994;2023-12-20T05:22:43;6.40;99.90
981;DHT22;479;53.514;9.994;2023-12-20T05:25:10;6.40;99.90
981;DHT22;479;53.514;9.994;2023-12-20T05:27:37;6.30;99.90
981;DHT22;479;53.514;9.994;2023-12-20T05:30:05;6.30;99.90
981;DHT22;479;53.514;9.994;2023-12-20T05:32:34;6.40;99.90
981;DHT22;479;53.514;9.994;2023-12-20T05:35:01;6.40;99.90
981;DHT22;479;53.514;9.994;2023-12-20T05:37:28;6.40;99.90
981;DHT22;479;53.514;9.994;2023-12-20T05:39:55;6.40;99.90
981;DHT22;479;53.514;9.994;2023-12-20T05:42:22;6.50;99.90
981;DHT22;479;53.514;9.994;2023-12-20T05:44:49;6.50;99.90
981;DHT22;479;53.514;9.994;2023-12-20T05:47:16;6.50;99.90
981;DHT22;479;53.514;9.994;2023-12-20T05:49:45;6.50;99.90
981;DHT22;479;53.514;9.994;2023-12-20T05:52:12;6.50;99.90
981;DHT22;479;53.514;9.994;2023-12-20T05:54:39;6.50;99.90
981;DHT22;479;53.514;9.994;2023-12-20T05:57:05;6.50;99.90
981;DHT22;479;53.514;9.994;2023-12-20T05:59:32;6.50;99.90
981;DHT22;479;53.514;9.994;2023-12-20T06:01:59;6.50;99.90
981;DHT22;479;53.514;9.994;2023-12-20T06:04:27;6.50;99.90
981;DHT22;479;53.514;9.994;2023-12-20T06:06:56;6.50;99.90
981;DHT22;479;53.514;9.994;2023-12-20T06:09:23;6.50;99.90
981;DHT22;479;53.514;9.994;2023-12-20T06:11:50;6.50;99.90
981;DHT22;479;53.514;9.994;2023-12-20T06:14:18;6.50;99.90
981;DHT22;479;53.514;9.994;2023-12-20T06:16:45;6.40;99.90
981;DHT22;479;53.514;9.994;2023-12-20T06:19:12;6.40;99.90
981;DHT22;479;53.514;9.994;2023-12-20T06:21:39;6.40;99.90
981;DHT22;479;53.514;9.994;2023-12-20T06:24:07;6.40;99.90
981;DHT22;479;53.514;9.994;2023-12-20T06:26:35;6.40;99.90
981;DHT22;479;53.514;9.994;2023-12-20T06:29:02;6.50;99.90
981;DHT22;479;53.514;9.994;2023-12-20T06:31:29;6.50;99.90
981;DHT22;479;53.514;9.994;2023-12-20T06:33:55;6.50;99.90
981;DHT22;479;53.514;9.994;2023-12-20T06:36:25;6.50;99.90
981;DHT22;479;53.514;9.994;2023-12-20T06:38:52;6.50;99.90
981;DHT22;479;53.514;9.994;2023-12-20T06:41:20;6.50;99.90
981;DHT22;479;53.514;9.994;2023-12-20T06:43:50;6.50;99.90
981;DHT22;479;53.514;9.994;2023-12-20T06:46:17;6.60;99.90
981;DHT22;479;53.514;9.994;2023-12-20T06:48:44;6.60;99.90
981;DHT22;479;53.514;9.994;2023-12-20T06:51:12;6.60;99.90
981;DHT22;479;53.514;9.994;2023-12-20T06:53:39;6.50;99.90
981;DHT22;479;53.514;9.994;2023-12-20T06:56:06;6.60;99.90
981;DHT22;479;53.514;9.994;2023-12-20T06:58:35;6.50;99.90
981;DHT22;479;53.514;9.994;2023-12-20T07:01:03;6.50;99.90
981;DHT22;479;53.514;9.994;2023-12-20T07:03:30;6.50;99.90
981;DHT22;479;53.514;9.994;2023-12-20T07:05:57;6.50;99.90
981;DHT22;479;53.514;9.994;2023-12-20T07:08:25;6.60;99.90
981;DHT22;479;53.514;9.994;2023-12-20T07:10:52;6.50;99.90
981;DHT22;479;53.514;9.994;2023-12-20T07:13:18;6.40;99.90
981;DHT22;479;53.514;9.994;2023-12-20T07:15:46;6.40;99.90
981;DHT22;479;53.514;9.994;2023-12-20T07:18:13;6.40;99.90
981;DHT22;479;53.514;9.994;2023-12-20T07:20:39;6.50;99.90
981;DHT22;479;53.514;9.994;2023-12-20T07:23:06;6.50;99.90
981;DHT22;479;53.514;9.994;2023-12-20T07:25:33;6.50;99.90
981;DHT22;479;53.514;9.994;2023-12-20T07:28:00;6.50;99.90
981;DHT22;479;53.514;9.994;2023-12-20T07:30:27;6.60;99.90
981;DHT22;479;53.514;9.994;2023-12-20T07:32:55;6.60;99.90
981;DHT22;479;53.514;9.994;2023-12-20T07:35:23;6.60;99.90
981;DHT22;479;53.514;9.994;2023-12-20T07:37:50;6.70;99.90
981;DHT22;479;53.514;9.994;2023-12-20T07:40:17;6.70;99.90
981;DHT22;479;53.514;9.994;2023-12-20T07:42:44;6.70;99.90
981;DHT22;479;53.514;9.994;2023-12-20T07:45:11;6.80;99.90
981;DHT22;479;53.514;9.994;2023-12-20T07:47:38;6.80;99.90
981;DHT22;479;53.514;9.994;2023-12-20T07:50:08;6.80;99.90
981;DHT22;479;53.514;9.994;2023-12-20T07:52:35;6.80;99.90
981;DHT22;479;53.514;9.994;2023-12-20T07:55:02;6.80;99.90
981;DHT22;479;53.514;9.994;2023-12-20T07:57:29;6.80;99.90
981;DHT22;479;53.514;9.994;2023-12-20T07:59:56;6.80;99.90
981;DHT22;479;53.514;9.994;2023-12-20T08:02:23;6.80;99.90
981;DHT22;479;53.514;9.994;2023-12-20T08:04:50;6.90;99.90
981;DHT22;479;53.514;9.994;2023-12-20T08:07:18;6.80;99.90
981;DHT22;479;53.514;9.994;2023-12-20T08:09:45;6.80;99.90
981;DHT22;479;53.514;9.994;2023-12-20T08:12:12;6.90;99.90
981;DHT22;479;53.514;9.994;2023-12-20T08:14:39;6.90;99.90
981;DHT22;479;53.514;9.994;2023-12-20T08:17:06;6.90;99.90
981;DHT22;479;53.514;9.994;2023-12-20T08:19:34;7.10;99.90
981;DHT22;479;53.514;9.994;2023-12-20T08:22:00;7.10;99.90
981;DHT22;479;53.514;9.994;2023-12-20T08:24:29;7.10;99.90
981;DHT22;479;53.514;9.994;2023-12-20T08:26:56;7.20;99.90
981;DHT22;479;53.514;9.994;2023-12-20T08:29:23;7.20;99.90
981;DHT22;479;53.514;9.994;2023-12-20T08:31:52;7.20;99.90
981;DHT22;479;53.514;9.994;2023-12-20T08:34:19;7.20;99.90
981;DHT22;479;53.514;9.994;2023-12-20T08:36:46;7.40;99.90
981;DHT22;479;53.514;9.994;2023-12-20T08:39:13;7.40;99.90
981;DHT22;479;53.514;9.994;2023-12-20T08:41:41;7.30;99.90
981;DHT22;479;53.514;9.994;2023-12-20T08:44:09;7.40;99.90
981;DHT22;479;53.514;9.994;2023-12-20T08:46:36;7.40;99.90
981;DHT22;479;53.514;9.994;2023-12-20T08:49:03;7.40;99.90
981;DHT22;479;53.514;9.994;2023-12-20T08:51:30;7.40;99.90
981;DHT22;479;53.514;9.994;2023-12-20T08:53:58;7.50;99.90
981;DHT22;479;53.514;9.994;2023-12-20T08:56:33;7.60;99.90
981;DHT22;479;53.514;9.994;2023-12-20T08:59:02;7.50;99.90
981;DHT22;479;53.514;9.994;2023-12-20T09:01:29;7.40;99.90
981;DHT22;479;53.514;9.994;2023-12-20T09:04:02;7.30;99.90
981;DHT22;479;53.514;9.994;2023-12-20T09:06:30;7.20;99.90
981;DHT22;479;53.514;9.994;2023-12-20T09:08:57;7.20;99.90
981;DHT22;479;53.514;9.994;2023-12-20T09:11:24;7.10;99.90
981;DHT22;479;53.514;9.994;2023-12-20T09:13:51;7.00;99.90
981;DHT22;479;53.514;9.994;2023-12-20T09:16:20;7.00;99.90
981;DHT22;479;53.514;9.994;2023-12-20T09:18:50;6.90;99.90
981;DHT22;479;53.514;9.994;2023-12-20T09:21:17;6.90;99.90
981;DHT22;479;53.514;9.994;2023-12-20T09:23:44;6.80;99.90
981;DHT22;479;53.514;9.994;2023-12-20T09:26:13;6.70;99.90
981;DHT22;479;53.514;9.994;2023-12-20T09:28:40;6.60;99.90
981;DHT22;479;53.514;9.994;2023-12-20T09:31:07;6.50;99.90
981;DHT22;479;53.514;9.994;2023-12-20T09:33:36;6.40;99.90
981;DHT22;479;53.514;9.994;2023-12-20T09:36:03;6.50;99.90
981;DHT22;479;53.514;9.994;2023-12-20T09:38:31;6.40;99.90
981;DHT22;479;53.514;9.994;2023-12-20T09:40:58;6.50;99.90
981;DHT22;479;53.514;9.994;2023-12-20T09:43:30;6.40;99.90
981;DHT22;479;53.514;9.994;2023-12-20T09:46:00;6.40;99.90
981;DHT22;479;53.514;9.994;2023-12-20T09:48:28;6.50;99.90
981;DHT22;479;53.514;9.994;2023-12-20T09:50:57;6.60;99.90
981;DHT22;479;53.514;9.994;2023-12-20T09:53:24;6.70;99.90
981;DHT22;479;53.514;9.994;2023-12-20T09:55:58;6.80;99.90
981;DHT22;479;53.514;9.994;2023-12-20T09:58:25;6.80;99.90
981;DHT22;479;53.514;9.994;2023-12-20T10:00:53;6.80;99.90
981;DHT22;479;53.514;9.994;2023-12-20T10:03:24;6.80;99.90
981;DHT22;479;53.514;9.994;2023-12-20T10:05:54;6.90;99.90
981;DHT22;479;53.514;9.994;2023-12-20T10:08:25;6.90;99.90
981;DHT22;479;53.514;9.994;2023-12-20T10:10:52;7.20;99.90
981;DHT22;479;53.514;9.994;2023-12-20T10:13:19;7.40;99.90
981;DHT22;479;53.514;9.994;2023-12-20T10:15:46;7.10;99.90
981;DHT22;479;53.514;9.994;2023-12-20T10:18:13;6.90;99.90
981;DHT22;479;53.514;9.994;2023-12-20T10:20:41;6.80;99.90
981;DHT22;479;53.514;9.994;2023-12-20T10:23:08;6.80;99.90
981;DHT22;479;53.514;9.994;2023-12-20T10:25:37;7.20;99.90
981;DHT22;479;53.514;9.994;2023-12-20T10:28:11;6.80;99.90
981;DHT22;479;53.514;9.994;2023-12-20T10:30:39;6.80;99.90
981;DHT22;479;53.514;9.994;2023-12-20T10:33:07;6.60;99.90
981;DHT22;479;53.514;9.994;2023-12-20T10:35:34;6.70;99.90
981;DHT22;479;53.514;9.994;2023-12-20T10:38:04;6.80;99.90
981;DHT22;479;53.514;9.994;2023-12-20T10:40:31;6.80;99.90
981;DHT22;479;53.514;9.994;2023-12-20T10:43:03;6.70;99.90
981;DHT22;479;53.514;9.994;2023-12-20T10:45:32;6.80;99.90
981;DHT22;479;53.514;9.994;2023-12-20T10:47:59;6.80;99.90
981;DHT22;479;53.514;9.994;2023-12-20T10:50:27;6.90;99.90
981;DHT22;479;53.514;9.994;2023-12-20T10:52:55;6.80;99.90
981;DHT22;479;53.514;9.994;2023-12-20T10:55:22;6.80;99.90
981;DHT22;479;53.514;9.994;2023-12-20T10:57:49;7.00;99.90
981;DHT22;479;53.514;9.994;2023-12-20T11:00:21;7.20;99.90
981;DHT22;479;53.514;9.994;2023-12-20T11:02:50;7.20;99.90
981;DHT22;479;53.514;9.994;2023-12-20T11:05:28;6.80;99.90
981;DHT22;479;53.514;9.994;2023-12-20T11:08:00;6.70;99.90
981;DHT22;479;53.514;9.994;2023-12-20T11:10:31;6.60;99.90
981;DHT22;479;53.514;9.994;2023-12-20T11:13:08;6.70;99.90
981;DHT22;479;53.514;9.994;2023-12-20T11:15:38;6.80;99.90
981;DHT22;479;53.514;9.994;2023-12-20T11:18:05;6.80;99.90
981;DHT22;479;53.514;9.994;2023-12-20T11:20:36;6.90;99.90
981;DHT22;479;53.514;9.994;2023-12-20T11:23:04;7.10;99.90
981;DHT22;479;53.514;9.994;2023-12-20T11:25:46;7.10;99.90
981;DHT22;479;53.514;9.994;2023-12-20T11:28:12;7.00;99.90
981;DHT22;479;53.514;9.994;2023-12-20T11:30:46;7.10;99.90
981;DHT22;479;53.514;9.994;2023-12-20T11:33:13;7.10;99.90
981;DHT22;479;53.514;9.994;2023-12-20T11:35:41;7.20;99.90
981;DHT22;479;53.514;9.994;2023-12-20T11:38:09;7.30;99.90
981;DHT22;479;53.514;9.994;2023-12-20T11:40:37;7.10;99.90
981;DHT22;479;53.514;9.994;2023-12-20T11:43:04;7.10;99.90
981;DHT22;479;53.514;9.994;2023-12-20T11:45:32;7.00;99.90
981;DHT22;479;53.514;9.994;2023-12-20T11:48:02;7.00;99.90
981;DHT22;479;53.514;9.994;2023-12-20T11:50:30;7.10;99.90
981;DHT22;479;53.514;9.994;2023-12-20T11:52:57;7.10;99.90
981;DHT22;479;53.514;9.994;2023-12-20T11:55:24;6.80;99.90
981;DHT22;479;53.514;9.994;2023-12-20T11:57:52;6.70;99.90
981;DHT22;479;53.514;9.994;2023-12-20T12:00:19;6.70;99.90
981;DHT22;479;53.514;9.994;2023-12-20T12:02:57;6.70;99.90
981;DHT22;479;53.514;9.994;2023-12-20T12:05:26;7.00;99.90
981;DHT22;479;53.514;9.994;2023-12-20T12:08:23;6.90;99.90
981;DHT22;479;53.514;9.994;2023-12-20T12:11:17;6.90;99.90
981;DHT22;479;53.514;9.994;2023-12-20T12:13:48;6.90;99.90
981;DHT22;479;53.514;9.994;2023-12-20T12:16:17;7.00;99.90
981;DHT22;479;53.514;9.994;2023-12-20T12:18:44;7.00;99.90
981;DHT22;479;53.514;9.994;2023-12-20T12:21:20;7.00;99.90
981;DHT22;479;53.514;9.994;2023-12-20T12:24:11;7.00;99.90
981;DHT22;479;53.514;9.994;2023-12-20T12:26:40;7.10;99.90
981;DHT22;479;53.514;9.994;2023-12-20T12:29:09;7.10;99.90
981;DHT22;479;53.514;9.994;2023-12-20T12:31:39;7.00;99.90
981;DHT22;479;53.514;9.994;2023-12-20T12:34:09;7.10;99.90
981;DHT22;479;53.514;9.994;2023-12-20T12:36:38;7.10;99.90
981;DHT22;479;53.514;9.994;2023-12-20T12:39:06;7.00;99.90
981;DHT22;479;53.514;9.994;2023-12-20T12:41:34;7.00;99.90
981;DHT22;479;53.514;9.994;2023-12-20T12:44:01;7.00;99.90
981;DHT22;479;53.514;9.994;2023-12-20T12:46:28;7.20;99.90
981;DHT22;479;53.514;9.994;2023-12-20T12:48:55;7.10;99.90
981;DHT22;479;53.514;9.994;2023-12-20T12:51:22;7.20;99.90
981;DHT22;479;53.514;9.994;2023-12-20T12:53:50;7.20;99.90
981;DHT22;479;53.514;9.994;2023-12-20T12:56:17;7.30;99.90
981;DHT22;479;53.514;9.994;2023-12-20T12:58:49;7.50;99.90
981;DHT22;479;53.514;9.994;2023-12-20T13:01:16;7.50;99.90
981;DHT22;479;53.514;9.994;2023-12-20T13:03:43;7.30;99.90
981;DHT22;479;53.514;9.994;2023-12-20T13:06:11;7.40;99.90
981;DHT22;479;53.514;9.994;2023-12-20T13:08:38;7.40;99.90
981;DHT22;479;53.514;9.994;2023-12-20T13:11:06;7.40;99.90
981;DHT22;479;53.514;9.994;2023-12-20T13:13:33;7.20;99.90
981;DHT22;479;53.514;9.994;2023-12-20T13:16:00;7.20;99.90
981;DHT22;479;53.514;9.994;2023-12-20T13:18:27;7.00;99.90
981;DHT22;479;53.514;9.994;2023-12-20T13:20:57;7.20;99.90
981;DHT22;479;53.514;9.994;2023-12-20T13:23:24;7.20;99.90
981;DHT22;479;53.514;9.994;2023-12-20T13:25:51;7.10;99.90
981;DHT22;479;53.514;9.994;2023-12-20T13:28:20;7.00;99.90
981;DHT22;479;53.514;9.994;2023-12-20T13:30:47;7.10;99.90
981;DHT22;479;53.514;9.994;2023-12-20T13:33:14;7.00;99.90
981;DHT22;479;53.514;9.994;2023-12-20T13:35:41;7.00;99.90
981;DHT22;479;53.514;9.994;2023-12-20T13:38:08;7.00;99.90
981;DHT22;479;53.514;9.994;2023-12-20T13:40:36;6.90;99.90
981;DHT22;479;53.514;9.994;2023-12-20T13:43:03;6.90;99.90
981;DHT22;479;53.514;9.994;2023-12-20T13:45:32;6.90;99.90
981;DHT22;479;53.514;9.994;2023-12-20T13:48:00;7.00;99.90
981;DHT22;479;53.514;9.994;2023-12-20T13:50:28;7.00;99.90
981;DHT22;479;53.514;9.994;2023-12-20T13:52:55;7.00;99.90
981;DHT22;479;53.514;9.994;2023-12-20T13:55:22;7.00;99.90
981;DHT22;479;53.514;9.994;2023-12-20T13:57:51;7.00;99.90
981;DHT22;479;53.514;9.994;2023-12-20T14:00:24;7.20;99.90
981;DHT22;479;53.514;9.994;2023-12-20T14:03:38;7.20;99.90
981;DHT22;479;53.514;9.994;2023-12-20T14:06:05;7.30;99.90
981;DHT22;479;53.514;9.994;2023-12-20T14:08:32;7.20;99.90
981;DHT22;479;53.514;9.994;2023-12-20T14:10:59;7.20;99.90
981;DHT22;479;53.514;9.994;2023-12-20T14:13:27;7.20;99.90
981;DHT22;479;53.514;9.994;2023-12-20T14:15:53;7.10;99.90
981;DHT22;479;53.514;9.994;2023-12-20T14:18:21;7.10;99.90
981;DHT22;479;53.514;9.994;2023-12-20T14:20:49;7.00;99.90
981;DHT22;479;53.514;9.994;2023-12-20T14:23:16;7.00;99.90
981;DHT22;479;53.514;9.994;2023-12-20T14:25:43;7.10;99.90
981;DHT22;479;53.514;9.994;2023-12-20T14:28:10;7.00;99.90
981;DHT22;479;53.514;9.994;2023-12-20T14:30:39;7.00;99.90
981;DHT22;479;53.514;9.994;2023-12-20T14:33:07;7.10;99.90
981;DHT22;479;53.514;9.994;2023-12-20T14:35:34;7.20;99.90
981;DHT22;479;53.514;9.994;2023-12-20T14:38:02;7.20;99.90
981;DHT22;479;53.514;9.994;2023-12-20T14:40:29;7.30;99.90
981;DHT22;479;53.514;9.994;2023-12-20T14:42:56;7.30;99.90
981;DHT22;479;53.514;9.994;2023-12-20T14:45:23;7.30;99.90
981;DHT22;479;53.514;9.994;2023-12-20T14:47:51;7.40;99.90
981;DHT22;479;53.514;9.994;2023-12-20T14:50:18;7.40;99.90
981;DHT22;479;53.514;9.994;2023-12-20T14:52:45;7.30;99.90
981;DHT22;479;53.514;9.994;2023-12-20T14:55:13;7.30;99.90
981;DHT22;479;53.514;9.994;2023-12-20T14:57:41;7.30;99.90
981;DHT22;479;53.514;9.994;2023-12-20T15:00:09;7.30;99.90
981;DHT22;479;53.514;9.994;2023-12-20T15:02:42;7.20;99.90
981;DHT22;479;53.514;9.994;2023-12-20T15:05:09;7.00;99.90
981;DHT22;479;53.514;9.994;2023-12-20T15:07:36;7.00;99.90
981;DHT22;479;53.514;9.994;2023-12-20T15:10:04;6.90;99.90
981;DHT22;479;53.514;9.994;2023-12-20T15:12:32;6.80;99.90
981;DHT22;479;53.514;9.994;2023-12-20T15:15:00;6.80;99.90
981;DHT22;479;53.514;9.994;2023-12-20T15:17:28;6.90;99.90
981;DHT22;479;53.514;9.994;2023-12-20T15:19:55;6.80;99.90
981;DHT22;479;53.514;9.994;2023-12-20T15:22:22;6.70;99.90
981;DHT22;479;53.514;9.994;2023-12-20T15:24:52;6.70;99.90
981;DHT22;479;53.514;9.994;2023-12-20T15:27:20;6.70;99.90
981;DHT22;479;53.514;9.994;2023-12-20T15:29:50;6.70;99.90
981;DHT22;479;53.514;9.994;2023-12-20T15:32:17;6.60;99.90
981;DHT22;479;53.514;9.994;2023-12-20T15:34:46;6.60;99.90
981;DHT22;479;53.514;9.994;2023-12-20T15:37:13;6.60;99.90
981;DHT22;479;53.514;9.994;2023-12-20T15:39:41;6.60;99.90
981;DHT22;479;53.514;9.994;2023-12-20T15:42:09;6.50;99.90
981;DHT22;479;53.514;9.994;2023-12-20T15:44:37;6.50;99.90
981;DHT22;479;53.514;9.994;2023-12-20T15:47:05;6.40;99.90
981;DHT22;479;53.514;9.994;2023-12-20T15:49:32;6.40;99.90
981;DHT22;479;53.514;9.994;2023-12-20T15:52:00;6.40;99.90
981;DHT22;479;53.514;9.994;2023-12-20T15:54:27;6.40;99.90
981;DHT22;479;53.514;9.994;2023-12-20T15:56:54;6.30;99.90
981;DHT22;479;53.514;9.994;2023-12-20T15:59:20;6.30;99.90
981;DHT22;479;53.514;9.994;2023-12-20T16:01:47;6.30;99.90
981;DHT22;479;53.514;9.994;2023-12-20T16:04:16;6.30;99.90
981;DHT22;479;53.514;9.994;2023-12-20T16:06:43;6.30;99.90
981;DHT22;479;53.514;9.994;2023-12-20T16:09:09;6.30;99.90
981;DHT22;479;53.514;9.994;2023-12-20T16:11:38;6.30;99.90
981;DHT22;479;53.514;9.994;2023-12-20T16:14:06;6.40;99.90
981;DHT22;479;53.514;9.994;2023-12-20T16:16:35;6.40;99.90
981;DHT22;479;53.514;9.994;2023-12-20T16:19:02;6.30;99.90
981;DHT22;479;53.514;9.994;2023-12-20T16:21:30;6.40;99.90
981;DHT22;479;53.514;9.994;2023-12-20T16:23:57;6.40;99.90
981;DHT22;479;53.514;9.994;2023-12-20T16:26:24;6.40;99.90
981;DHT22;479;53.514;9.994;2023-12-20T16:28:51;6.40;99.90
981;DHT22;479;53.514;9.994;2023-12-20T16:31:18;6.40;99.90
981;DHT22;479;53.514;9.994;2023-12-20T16:33:45;6.40;99.90
981;DHT22;479;53.514;9.994;2023-12-20T16:36:12;6.40;99.90
981;DHT22;479;53.514;9.994;2023-12-20T16:38:41;6.50;99.90
981;DHT22;479;53.514;9.994;2023-12-20T16:41:08;6.50;99.90
981;DHT22;479;53.514;9.994;2023-12-20T16:43:34;6.50;99.90
981;DHT22;479;53.514;9.994;2023-12-20T16:46:01;6.50;99.90
981;DHT22;479;53.514;9.994;2023-12-20T16:48:28;6.50;99.90
981;DHT22;479;53.514;9.994;2023-12-20T16:50:55;6.50;99.90
981;DHT22;479;53.514;9.994;2023-12-20T16:53:22;6.50;99.90
981;DHT22;479;53.514;9.994;2023-12-20T16:55:51;6.50;99.90